TimeCST,TemperatureF,Dew PointF,Humidity,Sea Level PressureIn,VisibilityMPH,Wind Direction,Wind SpeedMPH,Gust SpeedMPH,PrecipitationIn,Events,Conditions,WindDirDegrees,DateUTC
12:15 AM,32.0,32.0,100,30.39,8.0,Calm,Calm,-,0.00,,Clear,0,2013-01-07 06:15:00
12:35 AM,-9999,-9999,N/A,30.39,10.0,Calm,Calm,-,0.00,,Clear,0,2013-01-07 06:35:00
12:55 AM,-9999,-9999,N/A,30.39,10.0,Calm,Calm,-,0.00,,Clear,0,2013-01-07 06:55:00
1:15 AM,30.2,30.2,100,30.39,10.0,NE,4.6,-,0.00,,Clear,50,2013-01-07 07:15:00
1:35 AM,28.4,28.4,100,30.39,9.0,NNE,5.8,-,0.00,,Clear,30,2013-01-07 07:35:00
1:55 AM,28.4,28.4,100,30.39,8.0,NE,4.6,-,0.00,,Clear,40,2013-01-07 07:55:00
2:15 AM,30.2,30.2,100,30.38,7.0,NE,5.8,-,0.00,,Clear,40,2013-01-07 08:15:00
2:35 AM,30.2,30.2,100,30.38,10.0,NE,6.9,-,0.00,,Clear,40,2013-01-07 08:35:00
2:55 AM,30.2,30.2,100,30.38,7.0,NE,5.8,-,0.00,,Clear,40,2013-01-07 08:55:00
3:15 AM,30.2,30.2,100,30.39,10.0,NE,5.8,-,0.00,,Clear,50,2013-01-07 09:15:00
3:35 AM,30.2,30.2,100,30.39,10.0,NE,4.6,-,0.00,,Clear,40,2013-01-07 09:35:00
3:55 AM,28.4,28.4,100,30.39,10.0,NE,4.6,-,0.00,,Clear,40,2013-01-07 09:55:00
4:15 AM,28.4,28.4,100,30.39,5.0,NE,5.8,-,0.00,,Clear,50,2013-01-07 10:15:00
4:35 AM,28.4,28.4,100,30.38,9.0,NE,6.9,-,0.00,,Clear,40,2013-01-07 10:35:00
4:55 AM,28.4,28.4,100,30.38,7.0,NE,5.8,-,0.00,,Clear,50,2013-01-07 10:55:00
5:15 AM,28.4,28.4,100,30.39,7.0,NE,5.8,-,0.00,,Clear,50,2013-01-07 11:15:00
5:35 AM,28.4,28.4,100,30.39,7.0,NE,4.6,-,N/A,,Clear,40,2013-01-07 11:35:00
5:55 AM,28.4,28.4,100,30.39,6.0,NE,3.5,-,0.00,,Clear,40,2013-01-07 11:55:00
6:50 AM,26.6,26.6,100,30.42,7.0,NNE,4.6,-,N/A,,Clear,30,2013-01-07 12:50:00
7:50 AM,26.6,26.6,100,30.43,7.0,NE,4.6,-,N/A,,Clear,40,2013-01-07 13:50:00
9:50 AM,32.0,30.2,93,30.42,10.0,ENE,9.2,-,N/A,,Clear,60,2013-01-07 15:50:00
10:50 AM,37.4,28.4,70,30.38,10.0,ENE,10.4,-,N/A,,Clear,70,2013-01-07 16:50:00
11:50 AM,42.8,28.4,57,30.37,10.0,NNE,5.8,-,N/A,,Clear,30,2013-01-07 17:50:00
1:50 PM,48.2,28.4,46,30.30,10.0,Calm,Calm,-,N/A,,Clear,0,2013-01-07 19:50:00
2:50 PM,50.0,28.4,43,30.27,10.0,Calm,Calm,-,N/A,,Partly Cloudy,0,2013-01-07 20:50:00
3:50 PM,50.0,28.4,43,30.27,10.0,Calm,Calm,-,N/A,,Partly Cloudy,0,2013-01-07 21:50:00
4:50 PM,46.4,28.4,50,30.26,10.0,Calm,Calm,-,N/A,,Partly Cloudy,0,2013-01-07 22:50:00
5:50 PM,42.8,28.4,57,30.26,10.0,Calm,Calm,-,N/A,,Partly Cloudy,0,2013-01-07 23:50:00
6:45 PM,37.4,28.4,70,30.25,10.0,Calm,Calm,-,N/A,,Partly Cloudy,0,2013-01-08 00:45:00
7:55 PM,35.6,28.4,75,30.25,10.0,Calm,Calm,-,N/A,,Partly Cloudy,0,2013-01-08 01:55:00
8:15 PM,35.6,28.4,75,30.25,10.0,Calm,Calm,-,N/A,,Clear,0,2013-01-08 02:15:00
8:35 PM,35.6,28.4,75,30.25,10.0,Calm,Calm,-,0.00,,Clear,0,2013-01-08 02:35:00
8:55 PM,33.8,28.4,81,30.26,9.0,Calm,Calm,-,N/A,,Clear,0,2013-01-08 02:55:00
9:15 PM,33.8,28.4,81,30.25,10.0,Calm,Calm,-,0.00,,Clear,0,2013-01-08 03:15:00
9:35 PM,32.0,28.4,87,30.24,10.0,Calm,Calm,-,0.00,,Clear,0,2013-01-08 03:35:00
9:55 PM,32.0,28.4,87,30.24,10.0,SSE,5.8,-,0.00,,Clear,150,2013-01-08 03:55:00
10:15 PM,33.8,28.4,81,30.24,10.0,SSE,4.6,-,0.00,,Clear,150,2013-01-08 04:15:00
10:35 PM,33.8,28.4,81,30.24,10.0,Calm,Calm,-,0.00,,Clear,0,2013-01-08 04:35:00
10:55 PM,33.8,28.4,81,30.24,10.0,SSE,3.5,-,0.00,,Clear,150,2013-01-08 04:55:00
11:15 PM,32.0,28.4,87,30.23,7.0,Calm,Calm,-,0.00,,Clear,0,2013-01-08 05:15:00
11:35 PM,32.0,28.4,87,30.22,9.0,Calm,Calm,-,N/A,,Clear,0,2013-01-08 05:35:00
11:55 PM,32.0,30.2,93,30.22,9.0,Calm,Calm,-,0.00,,Clear,0,2013-01-08 05:55:00